Time;durP1;ratioP1;P1;durP2;ratioP2;P2;SDS_P1;SDS_P2;PMS_P1;PMS_P2;Temp;Humidity;BMP_temperature;BMP_pressure;BME280_temperature;BME280_humidity;BME280_pressure;Samples;Min_cycle;Max_cycle;Signal;HPM_P1;HPM_P2
2022/11/18 00:01:11;;;;;;;41.45;28.23;;;;;;;7.60;81.63;93801.66;5105971;28;20019;-71
2022/11/18 00:03:37;;;;;;;30.13;19.85;;;;;;;7.63;82.02;93798.81;5088553;28;20031;-71
2022/11/18 00:06:02;;;;;;;26.77;17.90;;;;;;;7.78;81.82;93794.09;5089608;28;20027;-71
2022/11/18 00:08:28;;;;;;;20.73;14.57;;;;;;;7.84;81.62;93784.00;5096061;28;20482;-72
2022/11/18 00:10:53;;;;;;;20.38;14.02;;;;;;;7.96;81.04;93802.78;5089854;28;20048;-72
2022/11/18 00:16:07;;;;;;;26.23;19.02;;;;;;;7.67;81.35;93810.53;5093085;28;20038;-71
2022/11/18 00:18:33;;;;;;;25.13;18.30;;;;;;;7.71;81.49;93803.31;5090322;28;20039;-71
2022/11/18 00:21:06;;;;;;;24.88;15.55;;;;;;;7.74;81.56;93806.44;5107066;28;20463;-72
2022/11/18 00:23:31;;;;;;;20.30;14.25;;;;;;;7.76;81.68;93801.97;5088054;28;20134;-71
2022/11/18 00:26:06;;;;;;;16.75;12.20;;;;;;;7.58;81.16;93793.25;5107864;28;20485;-71
2022/11/18 00:28:32;;;;;;;16.35;12.48;;;;;;;7.71;80.77;93798.16;5105935;28;20032;-71
2022/11/18 00:31:08;;;;;;;17.00;11.88;;;;;;;7.66;80.07;93798.56;5105573;28;20413;-71
2022/11/18 00:33:35;;;;;;;14.18;10.57;;;;;;;7.61;80.20;93798.16;5104104;28;20036;-71
2022/11/18 00:36:01;;;;;;;13.93;11.30;;;;;;;7.61;79.54;93804.13;5105422;28;20024;-72
2022/11/18 00:38:28;;;;;;;15.77;11.10;;;;;;;7.50;79.12;93804.25;5094465;28;20028;-71
2022/11/18 00:41:22;;;;;;;12.65;10.90;;;;;;;7.45;78.84;93803.81;5086003;28;20024;-71
2022/11/18 00:43:48;;;;;;;11.73;9.25;;;;;;;7.23;79.21;93788.53;5075519;28;20044;-72
2022/11/18 00:46:13;;;;;;;11.63;8.68;;;;;;;7.32;79.77;93785.16;5105950;28;20027;-71
2022/11/18 00:48:39;;;;;;;8.45;6.65;;;;;;;7.32;80.29;93790.31;5088883;28;20036;-71
2022/11/18 00:51:17;;;;;;;7.60;6.45;;;;;;;7.36;80.54;93783.97;5089025;28;20050;-71
2022/11/18 00:53:42;;;;;;;7.95;5.80;;;;;;;7.42;81.15;93793.75;5106726;28;20050;-71
2022/11/18 00:56:08;;;;;;;7.25;5.53;;;;;;;7.55;80.94;93796.06;5089580;28;20049;-71
2022/11/18 00:58:33;;;;;;;7.07;4.82;;;;;;;7.48;80.71;93797.56;5107159;28;20040;-71
2022/11/18 01:00:59;;;;;;;9.05;6.18;;;;;;;7.33;81.15;93787.63;5106970;28;20036;-71
2022/11/18 01:03:24;;;;;;;10.40;6.85;;;;;;;7.23;81.84;93783.38;5103317;28;20043;-71
2022/11/18 01:05:50;;;;;;;8.95;5.93;;;;;;;7.29;82.80;93780.25;5085915;28;20032;-71
2022/11/18 01:08:17;;;;;;;8.38;5.55;;;;;;;7.33;82.58;93774.69;5087852;28;20032;-71
2022/11/18 01:10:42;;;;;;;9.02;6.10;;;;;;;7.46;82.78;93783.97;5071372;28;20039;-72
2022/11/18 01:13:20;;;;;;;9.30;4.90;;;;;;;7.30;82.24;93785.31;5103834;28;20047;-72
2022/11/18 01:15:49;;;;;;;8.85;6.13;;;;;;;7.22;81.59;93772.22;5102163;28;20031;-71
2022/11/18 01:18:16;;;;;;;9.52;6.03;;;;;;;7.11;80.96;93778.31;5110176;28;20054;-71
2022/11/18 01:20:42;;;;;;;11.30;7.07;;;;;;;7.13;80.86;93773.84;5089588;28;20027;-71
2022/11/18 01:23:07;;;;;;;9.38;6.07;;;;;;;7.29;79.22;93780.25;5087508;28;20084;-71
2022/11/18 01:25:35;;;;;;;7.15;5.65;;;;;;;7.20;79.20;93781.88;5110749;28;20032;-71
2022/11/18 01:28:00;;;;;;;9.07;6.97;;;;;;;7.14;78.37;93766.91;5110135;28;20065;-71
2022/11/18 01:30:25;;;;;;;8.02;5.20;;;;;;;7.17;79.10;93789.88;5112008;28;20288;-71
2022/11/18 01:32:51;;;;;;;6.43;5.22;;;;;;;7.05;79.25;93796.91;5109417;28;20517;-72
2022/11/18 01:35:16;;;;;;;7.97;4.85;;;;;;;6.98;79.28;93798.38;5109629;28;20851;-71
2022/11/18 01:37:42;;;;;;;10.85;6.60;;;;;;;6.89;79.42;93791.41;5110977;28;20091;-71
2022/11/18 01:40:08;;;;;;;12.15;9.57;;;;;;;6.97;79.46;93794.16;5110930;28;20081;-71
2022/11/18 01:42:33;;;;;;;10.57;8.25;;;;;;;6.96;79.43;93792.50;5106868;28;20063;-71
2022/11/18 01:45:08;;;;;;;13.25;8.13;;;;;;;6.90;79.52;93793.03;5092445;28;20081;-71
2022/11/18 01:47:41;;;;;;;9.02;7.40;;;;;;;6.95;78.68;93785.72;5109393;28;20459;-71
2022/11/18 01:50:06;;;;;;;9.55;7.00;;;;;;;7.01;77.69;93790.34;5089483;28;20028;-71
2022/11/18 01:52:32;;;;;;;13.60;11.38;;;;;;;6.84;77.90;93784.03;5106896;28;20519;-71
2022/11/18 01:54:59;;;;;;;13.18;10.48;;;;;;;6.65;78.84;93778.78;5092428;28;20028;-71
2022/11/18 01:57:26;;;;;;;15.48;11.00;;;;;;;6.58;79.44;93775.91;5076939;28;20029;-71
2022/11/18 01:59:53;;;;;;;15.07;11.05;;;;;;;6.78;79.53;93796.66;5092705;28;20049;-71
2022/11/18 02:02:19;;;;;;;16.50;13.07;;;;;;;6.67;79.64;93793.22;5102021;28;20627;-71
2022/11/18 02:04:46;;;;;;;31.50;16.08;;;;;;;6.58;79.74;93788.00;5093261;28;20028;-71
2022/11/18 02:07:12;;;;;;;16.88;13.10;;;;;;;6.72;79.86;93793.66;5095800;28;20020;-71
2022/11/18 02:09:38;;;;;;;16.20;12.40;;;;;;;6.63;79.47;93791.84;5109063;28;20477;-71
2022/11/18 02:12:03;;;;;;;24.70;17.52;;;;;;;6.16;79.78;93775.94;5108163;27;20048;-71
2022/11/18 02:14:30;;;;;;;21.08;15.65;;;;;;;6.47;79.30;93802.59;5109212;28;20450;-71
2022/11/18 02:17:24;;;;;;;20.10;16.40;;;;;;;6.31;79.51;93801.41;5095276;27;20070;-71
2022/11/18 02:19:57;;;;;;;19.98;15.43;;;;;;;6.28;78.94;93796.50;5109247;28;20055;-71
2022/11/18 02:22:34;;;;;;;32.13;20.88;;;;;;;6.31;78.56;93809.16;5087951;28;20437;-71
2022/11/18 02:25:31;;;;;;;32.17;20.77;;;;;;;5.96;79.87;93794.78;5110291;28;20401;-71
2022/11/18 02:28:20;;;;;;;30.05;19.95;;;;;;;6.06;80.37;93792.28;5107700;28;20036;-71
2022/11/18 02:30:51;;;;;;;33.97;19.80;;;;;;;6.03;80.59;93795.94;5109567;28;20028;-71
2022/11/18 02:33:20;;;;;;;;;;;;;;;5.99;80.25;93802.25;5089925;28;20111;-71
2022/11/18 02:35:46;;;;;;;26.15;17.50;;;;;;;5.89;80.57;93789.28;5108896;28;20404;-71
2022/11/18 02:38:48;;;;;;;25.95;16.88;;;;;;;5.94;80.31;93799.25;5089411;28;20036;-71
2022/11/18 02:41:16;;;;;;;23.80;14.90;;;;;;;5.86;80.28;93794.69;5077802;28;20146;-71
2022/11/18 02:43:47;;;;;;;24.10;15.15;;;;;;;5.76;80.00;93781.69;5107410;28;20032;-71
2022/11/18 02:46:15;;;;;;;23.52;16.08;;;;;;;5.91;78.93;93771.94;5075040;27;20044;-71
2022/11/18 02:48:43;;;;;;;18.92;14.10;;;;;;;5.75;78.97;93785.22;5074882;28;20119;-71
2022/11/18 02:51:09;;;;;;;21.98;13.85;;;;;;;5.58;78.90;93775.47;5107319;28;20024;-71
2022/11/18 02:53:35;;;;;;;17.85;12.00;;;;;;;5.56;79.79;93785.06;5088422;28;20516;-71
2022/11/18 02:56:00;;;;;;;23.70;16.95;;;;;;;5.62;79.89;93763.16;5109807;28;20029;-71
2022/11/18 02:58:26;;;;;;;28.48;19.85;;;;;;;5.55;79.89;93773.94;5070661;28;20040;-71
2022/11/18 03:00:56;;;;;;;27.92;19.95;;;;;;;5.56;80.13;93782.50;5105112;28;20031;-71
2022/11/18 03:03:28;;;;;;;46.92;24.30;;;;;;;5.41;80.66;93802.56;5069963;28;20052;-71
2022/11/18 03:06:08;;;;;;;33.22;21.23;;;;;;;5.43;81.48;93794.69;5108428;28;20028;-71
2022/11/18 03:08:46;;;;;;;30.92;20.20;;;;;;;5.38;81.65;93783.00;5102835;28;20027;-71
2022/11/18 03:11:13;;;;;;;29.13;19.00;;;;;;;5.16;81.71;93790.78;5101827;27;20051;-71
2022/11/18 03:14:17;;;;;;;24.00;16.75;;;;;;;5.33;81.24;93789.47;5089965;28;20036;-71
2022/11/18 03:16:55;;;;;;;23.08;17.92;;;;;;;5.31;81.55;93783.59;5103576;28;20051;-71
2022/11/18 03:19:36;;;;;;;24.90;18.10;;;;;;;5.33;81.15;93800.56;5108693;28;20140;-71
2022/11/18 03:22:05;;;;;;;;;;;;;;;5.31;81.39;93796.47;5104816;28;20429;-71
2022/11/18 03:24:32;;;;;;;31.85;23.55;;;;;;;5.05;82.57;93785.66;5108999;28;19919;-71
2022/11/18 03:27:04;;;;;;;28.55;20.88;;;;;;;5.21;82.84;93785.25;5090821;28;20027;-71
2022/11/18 03:29:33;;;;;;;27.27;19.38;;;;;;;5.22;82.70;93785.16;5091801;28;20454;-72
2022/11/18 03:32:09;;;;;;;25.00;16.95;;;;;;;5.04;82.72;93777.13;5107113;28;20032;-71
2022/11/18 03:34:56;;;;;;;22.08;16.55;;;;;;;5.17;81.87;93786.44;5092043;28;20497;-73
2022/11/18 03:37:22;;;;;;;21.17;16.50;;;;;;;5.14;81.70;93780.59;5107293;28;20020;-73
2022/11/18 03:39:52;;;;;;;21.52;15.48;;;;;;;5.30;82.01;93785.38;5090851;28;20023;-73
2022/11/18 03:42:52;;;;;;;21.20;14.35;;;;;;;5.23;81.85;93779.03;5086440;28;20070;-72
2022/11/18 03:45:24;;;;;;;19.85;14.07;;;;;;;5.20;81.91;93787.00;5085719;28;20100;-74
2022/11/18 03:47:57;;;;;;;19.98;14.05;;;;;;;5.28;82.02;93781.28;5107287;28;20390;-73
2022/11/18 03:50:34;;;;;;;25.48;17.50;;;;;;;5.11;82.23;93774.88;5074203;28;20035;-72
2022/11/18 03:53:00;;;;;;;28.33;18.38;;;;;;;5.18;82.71;93767.47;5088382;28;20032;-72
2022/11/18 03:55:28;;;;;;;31.45;17.17;;;;;;;5.32;82.96;93775.78;5091013;28;20482;-73
2022/11/18 03:57:59;;;;;;;25.48;16.88;;;;;;;5.34;83.04;93776.44;5090903;28;20151;-73
2022/11/18 04:00:25;;;;;;;34.25;17.58;;;;;;;5.27;82.76;93765.00;5107203;28;20030;-73
2022/11/18 04:02:51;;;;;;;53.10;20.55;;;;;;;5.14;82.68;93764.31;5086246;28;20035;-73
2022/11/18 04:05:17;;;;;;;28.33;19.42;;;;;;;5.33;82.26;93764.53;5091203;28;20031;-73
2022/11/18 04:07:55;;;;;;;32.15;22.27;;;;;;;5.47;81.81;93781.47;5109251;27;20039;-73
2022/11/18 04:10:28;;;;;;;35.75;23.85;;;;;;;5.34;82.62;93776.44;5102912;28;20027;-73
2022/11/18 04:13:09;;;;;;;37.60;19.50;;;;;;;5.45;82.36;93777.38;5086770;28;20039;-73
2022/11/18 04:15:39;;;;;;;27.20;18.52;;;;;;;5.27;83.37;93784.81;5102719;28;20053;-73
2022/11/18 04:18:06;;;;;;;30.77;19.67;;;;;;;5.37;83.09;93789.09;5071280;28;20047;-73
2022/11/18 04:20:32;;;;;;;66.20;48.83;;;;;;;5.32;83.68;93787.81;5086336;28;20497;-73
2022/11/18 04:22:58;;;;;;;42.42;25.75;;;;;;;5.32;83.90;93787.81;5083016;28;20027;-73
2022/11/18 04:25:23;;;;;;;31.90;23.15;;;;;;;5.43;83.70;93781.81;5106654;28;20034;-73
2022/11/18 04:27:49;;;;;;;47.88;30.25;;;;;;;5.41;83.74;93776.81;5106543;28;20043;-70
2022/11/18 04:30:15;;;;;;;35.45;24.48;;;;;;;5.41;84.17;93778.56;5107413;28;20016;-74
2022/11/18 04:32:41;;;;;;;33.72;21.27;;;;;;;5.44;84.20;93775.75;5085934;28;20101;-73
2022/11/18 04:35:06;;;;;;;29.05;17.20;;;;;;;5.41;85.20;93779.38;5106026;28;20028;-73
2022/11/18 04:37:32;;;;;;;23.00;17.58;;;;;;;5.54;85.06;93790.34;5106224;28;20032;-73
2022/11/18 04:39:57;;;;;;;29.30;20.70;;;;;;;5.59;85.04;93801.09;5106386;28;20026;-73
2022/11/18 04:42:23;;;;;;;33.40;20.05;;;;;;;5.63;84.84;93795.69;5102739;28;20524;-73
2022/11/18 04:44:48;;;;;;;41.03;17.55;;;;;;;5.48;85.18;93788.25;5106121;28;20463;-73
2022/11/18 04:47:13;;;;;;;30.67;19.73;;;;;;;5.41;85.28;93787.09;5107240;28;20027;-73
2022/11/18 04:49:39;;;;;;;39.58;28.90;;;;;;;5.53;85.26;93795.63;5071988;28;20071;-73
2022/11/18 04:52:04;;;;;;;62.45;28.05;;;;;;;5.38;85.41;93780.44;5104017;28;20028;-73
2022/11/18 04:54:30;;;;;;;40.50;27.65;;;;;;;5.63;85.10;93795.69;5088823;28;20056;-73
2022/11/18 04:56:56;;;;;;;55.65;38.30;;;;;;;5.63;85.40;93793.13;5089571;28;20031;-73
2022/11/18 04:59:23;;;;;;;43.42;31.48;;;;;;;5.67;85.31;93797.91;5093104;28;20123;-73
2022/11/18 05:01:48;;;;;;;38.00;26.13;;;;;;;5.69;85.08;93801.19;5109022;28;20019;-73
2022/11/18 05:04:15;;;;;;;43.85;28.70;;;;;;;5.73;84.70;93788.88;5109679;28;20209;-74
2022/11/18 05:06:41;;;;;;;50.20;25.17;;;;;;;5.59;85.04;93789.97;5110270;28;20024;-72
2022/11/18 05:09:06;;;;;;;42.25;28.98;;;;;;;5.66;85.08;93814.31;5092967;28;20032;-73
2022/11/18 05:14:16;;;;;;;44.17;28.25;;;;;;;5.49;85.69;93799.34;5110302;28;20054;-73
2022/11/18 05:16:41;;;;;;;48.67;27.70;;;;;;;5.60;85.88;93804.50;5114852;27;20035;-73
2022/11/18 05:19:07;;;;;;;56.83;38.55;;;;;;;5.68;85.80;93796.97;5111767;28;20028;-72
2022/11/18 05:21:32;;;;;;;46.33;29.25;;;;;;;5.75;85.45;93781.84;5089753;28;20028;-73
2022/11/18 05:23:59;;;;;;;32.88;20.90;;;;;;;5.80;85.68;93803.72;5110411;28;20038;-73
2022/11/18 05:26:24;;;;;;;38.33;28.05;;;;;;;5.85;85.81;93810.25;5109781;28;20030;-74
2022/11/18 05:28:50;;;;;;;82.25;24.23;;;;;;;5.90;85.41;93808.13;5091073;28;20039;-73
2022/11/18 05:31:16;;;;;;;56.10;21.63;;;;;;;5.92;85.36;93801.91;5090287;28;20016;-73
2022/11/18 05:33:41;;;;;;;43.83;20.80;;;;;;;6.06;84.83;93813.72;5091342;28;20077;-73
2022/11/18 05:36:09;;;;;;;30.42;20.15;;;;;;;6.02;85.19;93808.00;5102892;28;20123;-73
2022/11/18 05:38:34;;;;;;;40.47;24.55;;;;;;;6.04;85.05;93811.28;5104655;28;20575;-73
2022/11/18 05:41:00;;;;;;;36.63;26.25;;;;;;;6.06;85.19;93805.19;5105155;28;20019;-73
2022/11/18 05:43:26;;;;;;;49.63;31.95;;;;;;;6.07;85.49;93804.22;5086197;28;20040;-73
2022/11/18 05:45:51;;;;;;;45.33;29.67;;;;;;;6.17;84.99;93805.13;5104276;28;20102;-74
2022/11/18 05:48:17;;;;;;;48.33;27.75;;;;;;;6.03;85.50;93793.34;5107019;27;20059;-71
2022/11/18 05:50:47;;;;;;;47.55;33.22;;;;;;;6.10;85.56;93798.81;5088863;28;20039;-73
2022/11/18 05:53:13;;;;;;;44.60;30.63;;;;;;;6.23;85.42;93795.13;5103447;28;20028;-72
2022/11/18 05:55:43;;;;;;;48.22;29.40;;;;;;;6.33;85.22;93809.88;5088461;28;20046;-72
2022/11/18 05:58:09;;;;;;;135.50;45.73;;;;;;;6.19;85.14;93800.66;5109310;28;20046;-72
2022/11/18 06:00:34;;;;;;;44.85;30.98;;;;;;;6.15;85.79;93802.66;5110947;28;20031;-72
2022/11/18 06:03:00;;;;;;;49.05;29.45;;;;;;;6.22;85.73;93808.97;5107333;28;20024;-72
2022/11/18 06:05:25;;;;;;;51.90;30.85;;;;;;;6.29;85.51;93795.56;5109711;28;20035;-72
2022/11/18 06:07:51;;;;;;;102.18;34.10;;;;;;;6.26;85.84;93794.88;5092334;28;20054;-72
2022/11/18 06:10:36;;;;;;;60.58;31.95;;;;;;;6.42;85.36;93814.25;5087001;28;20036;-72
2022/11/18 06:13:04;;;;;;;86.47;39.22;;;;;;;6.40;85.48;93792.91;5102922;28;20482;-72
2022/11/18 06:15:32;;;;;;;97.32;52.30;;;;;;;6.55;85.08;93798.59;5110319;28;20031;-72
2022/11/18 06:18:03;;;;;;;82.80;47.80;;;;;;;6.54;85.22;93787.44;5108661;28;20067;-72
2022/11/18 06:20:28;;;;;;;;;;;;;;;6.55;85.38;93793.44;5075669;28;20055;-72
2022/11/18 06:22:55;;;;;;;98.85;46.22;;;;;;;6.48;85.29;93762.94;5106055;28;20466;-72
2022/11/18 06:25:21;;;;;;;87.07;42.20;;;;;;;6.68;85.37;93805.16;5105259;28;20143;-72
2022/11/18 06:27:46;;;;;;;96.40;35.53;;;;;;;6.71;85.18;93784.28;5076868;28;20060;-72
2022/11/18 06:30:12;;;;;;;66.97;33.65;;;;;;;6.80;85.33;93799.91;5107561;27;20027;-72
2022/11/18 06:32:38;;;;;;;80.43;31.25;;;;;;;6.57;85.53;93789.75;5105466;27;20047;-72
2022/11/18 06:35:04;;;;;;;61.88;29.17;;;;;;;6.39;86.72;93775.81;5101872;27;20057;-72
2022/11/18 06:37:29;;;;;;;62.30;29.52;;;;;;;6.58;86.37;93788.00;5112499;27;20024;-72
2022/11/18 06:39:54;;;;;;;54.95;28.33;;;;;;;6.66;86.46;93780.44;5111782;27;20110;-72
2022/11/18 06:45:04;;;;;;;88.60;44.03;;;;;;;6.86;86.67;93783.94;5111999;27;20112;-72
2022/11/18 06:47:30;;;;;;;94.10;45.45;;;;;;;6.95;86.68;93770.22;5108079;28;20353;-72
2022/11/18 06:49:55;;;;;;;100.05;43.35;;;;;;;6.98;86.57;93776.91;5091738;27;20435;-71
2022/11/18 06:52:24;;;;;;;114.30;44.28;;;;;;;7.09;86.14;93776.81;5107532;27;20031;-71
2022/11/18 06:54:49;;;;;;;97.43;44.15;;;;;;;7.22;86.03;93786.91;5107601;28;20503;-72
2022/11/18 06:57:15;;;;;;;74.25;34.38;;;;;;;7.35;85.62;93790.06;5108534;28;20023;-72
2022/11/18 06:59:40;;;;;;;64.55;35.35;;;;;;;7.45;85.35;93788.31;5108991;28;20035;-71
2022/11/18 07:02:05;;;;;;;69.15;30.63;;;;;;;7.47;84.78;93804.50;5107563;28;20019;-71
2022/11/18 07:04:33;;;;;;;58.92;28.52;;;;;;;7.45;85.51;93801.25;5093796;28;20020;-71
2022/11/18 07:06:59;;;;;;;53.63;24.98;;;;;;;7.37;85.24;93783.81;5094820;27;20513;-71
2022/11/18 07:09:24;;;;;;;95.15;29.55;;;;;;;7.24;85.92;93803.88;5083098;28;20216;-71
2022/11/18 07:11:49;;;;;;;43.28;24.73;;;;;;;7.16;86.15;93807.16;5109216;28;20051;-71
2022/11/18 07:14:15;;;;;;;48.08;24.85;;;;;;;7.36;86.17;93799.47;5072697;28;20562;-72
2022/11/18 07:16:41;;;;;;;42.15;22.35;;;;;;;7.47;85.89;93781.25;5090192;28;20489;-71
2022/11/18 07:19:08;;;;;;;42.38;23.73;;;;;;;7.50;86.25;93806.84;5089593;28;20032;-71
2022/11/18 07:21:33;;;;;;;89.65;27.40;;;;;;;7.51;86.47;93808.44;5072431;28;20024;-71
2022/11/18 07:23:59;;;;;;;38.33;21.20;;;;;;;7.27;86.70;93782.97;5072086;28;20039;-72
2022/11/18 07:26:24;;;;;;;47.60;23.10;;;;;;;7.41;86.91;93755.97;5107143;28;20023;-71
2022/11/18 07:28:49;;;;;;;57.40;20.88;;;;;;;7.45;86.98;93770.22;5125961;27;20031;-71
2022/11/18 07:31:16;;;;;;;31.67;17.02;;;;;;;7.54;87.24;93760.84;5129815;27;20528;-72
2022/11/18 07:33:42;;;;;;;26.40;14.05;;;;;;;7.65;87.21;93767.66;5130966;27;20027;-72
2022/11/18 07:36:13;;;;;;;38.22;15.10;;;;;;;7.74;86.85;93778.00;5112416;27;20050;-72
2022/11/18 07:38:38;;;;;;;74.33;32.30;;;;;;;7.91;86.67;93761.03;5130153;27;20031;-72
2022/11/18 07:41:04;;;;;;;49.08;17.20;;;;;;;7.66;87.01;93759.78;5131521;27;20019;-72
2022/11/18 07:43:31;;;;;;;38.67;15.88;;;;;;;7.59;87.41;93748.34;5131547;27;20062;-72
2022/11/18 07:45:57;;;;;;;30.33;17.20;;;;;;;7.67;86.97;93740.75;5131408;27;20027;-72
2022/11/18 07:48:22;;;;;;;34.83;21.00;;;;;;;7.87;86.91;93751.91;5131402;27;20278;-72
2022/11/18 07:50:47;;;;;;;40.40;21.33;;;;;;;8.04;86.36;93758.97;5131325;27;20027;-72
2022/11/18 07:53:13;;;;;;;46.13;25.80;;;;;;;8.07;86.48;93744.94;5132628;27;20390;-72
2022/11/18 07:55:38;;;;;;;38.90;21.10;;;;;;;8.05;86.68;93745.09;5132348;27;20463;-72
2022/11/18 07:58:04;;;;;;;30.92;18.65;;;;;;;8.00;86.97;93760.19;5131235;27;20454;-72
2022/11/18 08:00:29;;;;;;;33.30;20.17;;;;;;;8.12;86.17;93752.28;5114118;27;20035;-72
2022/11/18 08:02:55;;;;;;;28.83;17.23;;;;;;;8.02;86.23;93758.31;5131024;27;20581;-72
2022/11/18 08:05:20;;;;;;;26.40;15.30;;;;;;;7.85;85.75;93720.19;5131136;27;20482;-72
2022/11/18 08:07:45;;;;;;;36.58;22.40;;;;;;;7.99;86.17;93750.78;5113853;27;20493;-72
2022/11/18 08:10:11;;;;;;;31.73;20.38;;;;;;;7.99;86.41;93791.34;5132005;27;20076;-72
2022/11/18 08:12:36;;;;;;;29.25;18.38;;;;;;;8.12;86.06;93794.50;5130799;27;20047;-72
2022/11/18 08:15:02;;;;;;;32.95;17.67;;;;;;;8.14;86.44;93784.03;5131988;27;20027;-72
2022/11/18 08:17:27;;;;;;;26.45;16.48;;;;;;;8.20;85.90;93797.22;5130932;27;20039;-72
2022/11/18 08:19:53;;;;;;;39.83;22.88;;;;;;;8.28;85.78;93812.88;5131994;27;20045;-72
2022/11/18 08:22:19;;;;;;;37.13;20.75;;;;;;;8.13;85.96;93803.06;5130661;27;20038;-72
2022/11/18 08:24:46;;;;;;;31.23;20.00;;;;;;;8.14;86.20;93784.84;5131906;27;20023;-72
2022/11/18 08:27:12;;;;;;;35.47;21.02;;;;;;;8.33;86.09;93802.13;5130683;27;20051;-72
2022/11/18 08:29:37;;;;;;;38.35;22.02;;;;;;;8.33;86.12;93789.19;5130667;27;20083;-72
2022/11/18 08:32:04;;;;;;;41.22;20.67;;;;;;;8.10;86.94;93780.06;5131297;27;20092;-72
2022/11/18 08:34:29;;;;;;;40.35;20.95;;;;;;;8.25;86.92;93770.94;5113815;27;20038;-72
2022/11/18 08:36:55;;;;;;;43.83;21.00;;;;;;;8.24;87.58;93738.25;5113550;28;20023;-72
2022/11/18 08:39:20;;;;;;;35.30;20.95;;;;;;;8.37;88.13;93745.72;5113560;28;20027;-72
2022/11/18 08:41:46;;;;;;;34.17;20.85;;;;;;;8.68;87.93;93762.69;5130901;28;20023;-72
2022/11/18 08:44:15;;;;;;;47.13;26.38;;;;;;;8.94;87.59;93733.56;5132188;27;20043;-73
2022/11/18 08:46:47;;;;;;;44.15;25.40;;;;;;;9.21;87.37;93740.53;5113512;28;20062;-73
2022/11/18 08:49:13;;;;;;;71.53;45.78;;;;;;;9.45;86.40;93731.41;5097861;28;20035;-73
2022/11/18 08:51:38;;;;;;;59.38;31.20;;;;;;;9.38;86.26;93733.75;5130685;28;20034;-73
2022/11/18 08:54:04;;;;;;;40.50;23.42;;;;;;;9.46;85.86;93722.66;5113091;28;20080;-73
2022/11/18 08:56:30;;;;;;;27.90;17.67;;;;;;;9.72;85.73;93710.59;5130338;28;20059;-73
2022/11/18 08:58:55;;;;;;;36.83;20.20;;;;;;;9.92;86.19;93694.84;5131901;27;20118;-73
2022/11/18 09:01:21;;;;;;;22.77;14.38;;;;;;;10.18;85.07;93690.50;5130409;28;20034;-73
2022/11/18 09:03:46;;;;;;;18.17;11.50;;;;;;;10.47;84.46;93673.84;5130470;28;20035;-73
2022/11/18 09:06:17;;;;;;;12.10;7.47;;;;;;;10.69;81.68;93659.50;5130536;28;20324;-73
2022/11/18 09:08:42;;;;;;;9.77;6.40;;;;;;;10.82;80.18;93648.69;5130192;28;20045;-73
2022/11/18 09:11:10;;;;;;;10.02;5.95;;;;;;;11.07;78.46;93642.59;5113055;28;20054;-73
2022/11/18 09:13:35;;;;;;;11.55;6.07;;;;;;;11.44;76.90;93645.75;5130359;28;20091;-73
2022/11/18 09:16:01;;;;;;;9.45;7.32;;;;;;;11.59;76.55;93642.38;5130272;28;20102;-73
2022/11/18 09:18:26;;;;;;;17.38;10.02;;;;;;;11.83;75.81;93656.34;5096213;28;20035;-73
2022/11/18 09:20:55;;;;;;;19.98;12.98;;;;;;;11.90;76.17;93638.34;5113158;28;20031;-73
2022/11/18 09:23:21;;;;;;;18.05;12.05;;;;;;;12.03;75.12;93649.88;5130134;28;20038;-73
2022/11/18 09:25:46;;;;;;;20.77;13.05;;;;;;;12.13;75.18;93649.72;5096023;28;20019;-73
2022/11/18 09:28:12;;;;;;;18.33;13.13;;;;;;;12.09;75.07;93617.19;5130224;28;20042;-73
2022/11/18 09:30:37;;;;;;;18.23;11.43;;;;;;;12.38;74.12;93640.06;5131390;27;20031;-73
2022/11/18 09:33:03;;;;;;;19.48;13.57;;;;;;;12.56;72.72;93646.84;5112960;28;20508;-73
2022/11/18 09:35:28;;;;;;;21.65;15.43;;;;;;;12.43;73.42;93627.38;5095953;28;20496;-73
2022/11/18 09:37:54;;;;;;;20.77;12.93;;;;;;;12.29;71.39;93659.31;5130100;28;20058;-73
2022/11/18 09:40:19;;;;;;;18.10;11.93;;;;;;;12.18;71.67;93663.06;5131288;27;20020;-73
2022/11/18 09:43:14;;;;;;;22.63;14.02;;;;;;;12.02;71.17;93650.03;5130075;28;20035;-73
2022/11/18 09:45:43;;;;;;;18.17;11.40;;;;;;;11.81;71.57;93622.72;5134009;27;20027;-73
2022/11/18 09:48:17;;;;;;;18.60;12.68;;;;;;;11.83;73.00;93622.53;5099709;27;20072;-73
2022/11/18 09:50:42;;;;;;;19.98;13.00;;;;;;;12.13;71.70;93602.06;5116840;27;20034;-73
2022/11/18 09:53:16;;;;;;;16.70;12.13;;;;;;;12.25;71.00;93604.13;5133730;27;20400;-73
2022/11/18 09:55:41;;;;;;;18.60;12.30;;;;;;;12.37;70.30;93598.56;5134766;27;20072;-73
2022/11/18 09:58:30;;;;;;;21.60;13.77;;;;;;;12.47;70.18;93596.59;5116538;27;20031;-73
2022/11/18 10:00:56;;;;;;;19.88;14.13;;;;;;;12.59;69.80;93610.03;5133190;27;20046;-73
2022/11/18 10:03:29;;;;;;;22.73;15.75;;;;;;;12.58;70.68;93579.78;5116312;27;20405;-73
2022/11/18 10:06:03;;;;;;;24.77;16.80;;;;;;;12.73;69.46;93581.50;5116526;27;20027;-73
2022/11/18 10:08:32;;;;;;;22.13;15.85;;;;;;;12.50;69.78;93581.41;5134819;27;20031;-73
2022/11/18 10:11:05;;;;;;;21.45;15.88;;;;;;;12.64;70.62;93568.69;5133109;27;20043;-73
2022/11/18 10:13:40;;;;;;;24.55;16.88;;;;;;;12.81;69.76;93570.22;5134781;27;20050;-73
2022/11/18 10:16:40;;;;;;;26.67;17.92;;;;;;;13.03;69.88;93586.06;5133118;27;20489;-73
2022/11/18 10:19:12;;;;;;;28.38;19.00;;;;;;;13.10;69.20;93598.25;5118763;27;20047;-73
2022/11/18 10:21:56;;;;;;;36.33;22.48;;;;;;;13.21;68.49;93599.66;5133079;27;20031;-73
2022/11/18 10:24:23;;;;;;;26.52;18.35;;;;;;;13.35;67.87;93596.34;5134647;27;20035;-73
2022/11/18 10:26:56;;;;;;;25.85;16.63;;;;;;;13.51;67.12;93577.16;5132937;27;20031;-73
2022/11/18 10:29:22;;;;;;;28.55;17.10;;;;;;;13.50;67.60;93583.34;5116513;27;20115;-73
2022/11/18 10:32:12;;;;;;;25.80;16.23;;;;;;;13.56;66.79;93577.44;5115880;27;20059;-73
2022/11/18 10:34:50;;;;;;;26.37;16.73;;;;;;;13.38;67.73;93559.47;5133994;27;20032;-73
2022/11/18 10:37:42;;;;;;;28.60;17.17;;;;;;;13.24;67.17;93539.34;5134015;27;20512;-73
2022/11/18 10:40:08;;;;;;;9.85;6.00;;;;;;;13.89;59.65;93538.00;5128739;27;20038;-73
2022/11/18 10:42:36;;;;;;;2.80;1.73;;;;;;;14.22;56.69;93529.84;5115471;27;20035;-73
2022/11/18 10:45:20;;;;;;;3.38;1.88;;;;;;;14.57;54.37;93523.09;5115793;27;20481;-73
2022/11/18 10:48:17;;;;;;;3.20;1.20;;;;;;;14.98;52.98;93535.63;5132416;27;20122;-73
2022/11/18 10:50:44;;;;;;;2.65;1.33;;;;;;;15.44;51.85;93508.31;5116356;27;20035;-73
2022/11/18 10:53:45;;;;;;;2.25;1.00;;;;;;;15.76;49.41;93480.81;5115527;27;20110;-73
2022/11/18 10:56:12;;;;;;;2.83;1.20;;;;;;;15.98;50.49;93511.16;5052844;28;20037;-73
2022/11/18 10:58:47;;;;;;;2.15;1.35;;;;;;;16.12;50.10;93496.34;5102881;27;20132;-73
2022/11/18 11:01:23;;;;;;;2.65;1.15;;;;;;;16.14;47.22;93498.78;5116235;27;20118;-73
2022/11/18 11:04:11;;;;;;;3.92;1.20;;;;;;;16.28;47.65;93485.56;5115358;27;20110;-73
2022/11/18 11:06:37;;;;;;;1.65;1.00;;;;;;;16.29;47.85;93483.75;5133402;27;20027;-73
2022/11/18 11:09:03;;;;;;;1.90;1.02;;;;;;;16.33;48.48;93482.38;5098052;27;20091;-73
2022/11/18 11:11:30;;;;;;;2.22;1.02;;;;;;;16.39;49.05;93483.41;5132015;27;20047;-73
2022/11/18 11:14:18;;;;;;;3.97;1.15;;;;;;;16.39;47.41;93476.34;5132119;27;20480;-73
2022/11/18 11:17:29;;;;;;;2.28;1.20;;;;;;;16.53;47.90;93480.63;5132110;27;20465;-73
2022/11/18 11:20:03;;;;;;;1.40;1.00;;;;;;;16.67;46.33;93489.34;5119931;27;20084;-73
2022/11/18 11:22:29;;;;;;;2.85;1.20;;;;;;;16.65;46.94;93474.81;5115632;27;20043;-73
2022/11/18 11:24:57;;;;;;;2.67;1.15;;;;;;;16.85;46.34;93475.72;5131802;27;20031;-73
2022/11/18 11:27:49;;;;;;;3.40;1.23;;;;;;;16.73;46.54;93474.66;5133390;27;20076;-73
2022/11/18 11:30:19;;;;;;;3.53;1.20;;;;;;;16.83;47.53;93474.34;5131659;27;20113;-73
2022/11/18 11:33:05;;;;;;;3.70;1.50;;;;;;;16.89;47.42;93468.28;5114820;27;20031;-73
2022/11/18 11:35:52;;;;;;;3.25;1.20;;;;;;;16.66;46.46;93461.53;5131577;27;20042;-73
2022/11/18 11:38:21;;;;;;;2.42;1.10;;;;;;;16.75;46.55;93462.16;5133039;27;20438;-73
2022/11/18 11:40:54;;;;;;;1.92;1.10;;;;;;;16.60;45.76;93453.63;5131441;27;20066;-73
2022/11/18 11:43:31;;;;;;;2.70;1.17;;;;;;;16.74;46.34;93458.75;5131558;27;20034;-73
2022/11/18 11:46:06;;;;;;;2.97;1.20;;;;;;;16.64;45.64;93452.25;5131379;27;20512;-73